Terminal Aerodrome Forecast
Issued by NWS Louisville, KY

Home | Current Version | Previous Version | Text Only | Print | Product List | Glossary On
Versions: 1 2 3 4 5 6 7 8 9 10 11 12 13 14 15 16 17 18
000
FTUS43 KLMK 201700
TAFBWG
TAF
KBWG 201721Z 2018/2118 25007KT P6SM SCT025 BKN250
     FM202100 25005KT P6SM VCTS BKN040CB
     FM210400 VRB04KT P6SM SCT050 BKN250
     FM210900 00000KT 4SM BR SCT250
     FM211400 24007KT P6SM FEW040 SCT250=

USA.gov is the U.S. government's official web portal to all federal, state and local government web resources and services.